createdAt,value
2022-12-15T00:02:09.013Z,30.52
2022-12-15T00:04:36.848Z,27.85
2022-12-15T00:07:03.757Z,26.80
2022-12-15T00:09:31.037Z,32.17
2022-12-15T00:11:57.668Z,26.05
2022-12-15T00:14:24.190Z,29.67
2022-12-15T00:16:50.766Z,37.10
2022-12-15T00:19:17.312Z,31.95
2022-12-15T00:21:45.170Z,27.85
2022-12-15T00:24:11.841Z,34.10
2022-12-15T00:26:38.349Z,49.55
2022-12-15T00:29:05.068Z,35.90
2022-12-15T00:31:31.670Z,28.30
2022-12-15T00:33:58.154Z,32.35
2022-12-15T00:36:24.985Z,32.77
2022-12-15T00:38:52.854Z,24.70
2022-12-15T00:41:22.225Z,21.88
2022-12-15T00:43:48.714Z,30.90
2022-12-15T00:46:15.682Z,60.80
2022-12-15T00:48:43.237Z,46.63
2022-12-15T00:51:12.010Z,25.75
2022-12-15T00:53:39.120Z,28.77
2022-12-15T00:56:07.698Z,54.53
2022-12-15T00:58:34.397Z,39.53
2022-12-15T01:01:06.395Z,23.83
2022-12-15T01:03:35.144Z,34.10
2022-12-15T01:06:05.458Z,37.27
2022-12-15T01:08:32.553Z,34.72
2022-12-15T01:11:03.801Z,31.58
2022-12-15T01:13:32.175Z,38.97
2022-12-15T01:15:59.026Z,29.40
2022-12-15T01:18:26.956Z,33.85
2022-12-15T01:20:58.236Z,37.58
2022-12-15T01:23:27.076Z,40.75
2022-12-15T01:25:55.217Z,41.70
2022-12-15T01:28:22.812Z,40.63
2022-12-15T01:30:51.826Z,40.15
2022-12-15T01:33:19.841Z,35.97
2022-12-15T01:35:55.720Z,30.33
2022-12-15T01:38:23.969Z,22.17
2022-12-15T01:40:52.692Z,29.88
2022-12-15T01:43:22.750Z,28.15
2022-12-15T01:46:01.985Z,30.27
2022-12-15T01:48:34.810Z,22.85
2022-12-15T01:51:09.348Z,35.60
2022-12-15T01:53:40.411Z,25.77
2022-12-15T01:56:08.648Z,36.15
2022-12-15T01:58:36.214Z,25.90
2022-12-15T02:01:04.843Z,53.10
2022-12-15T02:03:32.436Z,39.60
2022-12-15T02:06:00.830Z,27.83
2022-12-15T02:08:29.248Z,39.00
2022-12-15T02:11:10.559Z,21.52
2022-12-15T02:13:46.977Z,22.70
2022-12-15T02:16:27.352Z,36.78
2022-12-15T02:19:04.652Z,22.08
2022-12-15T02:21:38.853Z,26.73
2022-12-15T02:24:35.325Z,18.17
2022-12-15T02:27:38.501Z,22.63
2022-12-15T02:30:22.001Z,23.33
2022-12-15T02:32:59.539Z,23.80
2022-12-15T02:35:36.543Z,22.50
2022-12-15T02:38:04.550Z,23.98
2022-12-15T02:40:31.356Z,21.50
2022-12-15T02:43:01.716Z,15.40
2022-12-15T02:45:35.373Z,25.80
2022-12-15T02:48:21.458Z,24.27
2022-12-15T02:51:02.804Z,22.80
2022-12-15T02:53:44.431Z,18.80
2022-12-15T02:56:24.467Z,18.48
2022-12-15T02:59:04.058Z,20.50
2022-12-15T03:01:38.389Z,23.93
2022-12-15T03:04:08.175Z,18.27
2022-12-15T03:06:34.667Z,21.67
2022-12-15T03:09:01.363Z,26.25
2022-12-15T03:11:28.500Z,22.37
2022-12-15T03:13:55.860Z,26.55
2022-12-15T03:16:25.366Z,25.75
2022-12-15T03:18:57.011Z,31.40
2022-12-15T03:21:23.566Z,31.63
2022-12-15T03:23:50.088Z,24.83
2022-12-15T03:26:17.830Z,20.17
2022-12-15T03:28:44.743Z,22.85
2022-12-15T03:31:11.271Z,28.87
2022-12-15T03:33:38.441Z,20.48
2022-12-15T03:36:08.694Z,24.40
2022-12-15T03:38:35.815Z,23.42
2022-12-15T03:41:02.304Z,24.47
2022-12-15T03:43:29.633Z,22.00
2022-12-15T03:45:56.460Z,22.38
2022-12-15T03:48:22.939Z,23.48
2022-12-15T03:50:49.466Z,22.17
2022-12-15T03:53:17.715Z,23.92
2022-12-15T03:55:44.293Z,18.80
2022-12-15T03:58:10.740Z,21.42
2022-12-15T04:00:37.671Z,26.10
2022-12-15T04:03:04.326Z,22.98
2022-12-15T04:05:32.868Z,20.13
2022-12-15T04:08:01.010Z,24.33
2022-12-15T04:10:34.333Z,19.77
2022-12-15T04:13:03.444Z,16.38
2022-12-15T04:15:30.370Z,18.73
2022-12-15T04:17:59.909Z,17.30
2022-12-15T04:20:28.109Z,17.37
2022-12-15T04:22:55.119Z,19.70
2022-12-15T04:25:23.922Z,20.65
2022-12-15T04:27:52.690Z,21.67
2022-12-15T04:30:21.273Z,26.97
2022-12-15T04:32:49.697Z,17.02
2022-12-15T04:35:17.139Z,20.92
2022-12-15T04:37:44.514Z,18.10
2022-12-15T04:40:11.311Z,20.87
2022-12-15T04:42:42.250Z,23.05
2022-12-15T04:45:16.956Z,22.23
2022-12-15T04:47:47.294Z,22.33
2022-12-15T04:50:14.041Z,17.87
2022-12-15T04:52:40.544Z,21.65
2022-12-15T04:55:07.963Z,18.13
2022-12-15T04:57:39.222Z,21.60
2022-12-15T05:00:06.892Z,23.37
2022-12-15T05:02:35.409Z,19.98
2022-12-15T05:05:02.368Z,16.83
2022-12-15T05:07:28.858Z,22.27
2022-12-15T05:09:59.646Z,18.23
2022-12-15T05:12:29.156Z,22.73
2022-12-15T05:14:56.195Z,30.30
2022-12-15T05:17:22.827Z,19.73
2022-12-15T05:19:52.247Z,19.65
2022-12-15T05:22:18.799Z,17.30
2022-12-15T05:24:45.321Z,20.95
2022-12-15T05:27:13.913Z,15.13
2022-12-15T05:29:40.416Z,22.92
2022-12-15T05:32:07.705Z,18.95
2022-12-15T05:34:36.461Z,19.02
2022-12-15T05:37:08.299Z,20.00
2022-12-15T05:39:35.332Z,17.58
2022-12-15T05:42:02.126Z,22.42
2022-12-15T05:44:28.819Z,19.55
2022-12-15T05:46:55.361Z,24.53
2022-12-15T05:49:21.905Z,16.38
2022-12-15T05:51:48.385Z,19.05
2022-12-15T05:54:18.446Z,18.38
2022-12-15T05:56:45.425Z,19.67
2022-12-15T05:59:12.499Z,23.85
2022-12-15T06:01:39.726Z,21.50
2022-12-15T06:04:06.721Z,17.08
2022-12-15T06:06:33.558Z,22.33
2022-12-15T06:09:25.275Z,15.50
2022-12-15T06:11:51.761Z,19.05
2022-12-15T06:14:18.490Z,24.83
2022-12-15T06:16:50.350Z,27.53
2022-12-15T06:19:19.007Z,21.63
2022-12-15T06:21:48.384Z,27.80
2022-12-15T06:24:15.514Z,19.63
2022-12-15T06:26:44.224Z,24.23
2022-12-15T06:29:12.785Z,23.55
2022-12-15T06:31:41.295Z,21.33
2022-12-15T06:34:10.957Z,20.95
2022-12-15T06:36:38.020Z,22.73
2022-12-15T06:39:07.239Z,20.60
2022-12-15T06:41:33.973Z,22.55
2022-12-15T06:44:02.417Z,17.95
2022-12-15T06:49:36.449Z,19.88
2022-12-15T06:52:09.648Z,20.25
2022-12-15T06:54:39.255Z,19.35
2022-12-15T06:57:16.241Z,24.97
2022-12-15T06:59:51.228Z,23.98
2022-12-15T07:02:25.205Z,20.75
2022-12-15T07:05:27.258Z,22.00
2022-12-15T07:07:53.829Z,26.73
2022-12-15T07:10:21.869Z,27.92
2022-12-15T07:12:48.386Z,30.75
2022-12-15T07:15:16.275Z,23.60
2022-12-15T07:17:42.762Z,24.87
2022-12-15T07:20:10.377Z,25.85
2022-12-15T07:22:36.878Z,22.75
2022-12-15T07:25:03.992Z,25.35
2022-12-15T07:27:30.485Z,26.83
2022-12-15T07:29:57.027Z,24.27
2022-12-15T07:32:25.090Z,28.73
2022-12-15T07:34:51.609Z,30.80
2022-12-15T07:37:18.093Z,27.40
2022-12-15T07:39:44.631Z,29.90
2022-12-15T07:42:11.474Z,25.58
2022-12-15T07:44:38.008Z,28.95
2022-12-15T07:47:04.928Z,27.83
2022-12-15T07:49:32.933Z,25.30
2022-12-15T07:51:59.470Z,29.08
2022-12-15T07:54:26.424Z,22.25
2022-12-15T07:56:53.466Z,26.83
2022-12-15T07:59:19.980Z,33.92
2022-12-15T08:01:46.619Z,30.67
2022-12-15T08:04:15.189Z,33.72
2022-12-15T08:06:43.336Z,23.80
2022-12-15T08:09:10.179Z,27.05
2022-12-15T08:11:38.018Z,30.17
2022-12-15T08:14:07.947Z,26.90
2022-12-15T08:16:37.209Z,26.50
2022-12-15T08:19:04.395Z,28.42
2022-12-15T08:21:31.987Z,33.22
2022-12-15T08:24:39.963Z,26.75
2022-12-15T08:27:07.932Z,29.90
2022-12-15T08:29:55.371Z,28.27
2022-12-15T08:32:51.596Z,29.48
2022-12-15T08:36:06.594Z,32.75
2022-12-15T08:38:48.355Z,37.13
2022-12-15T08:41:18.264Z,29.55
2022-12-15T08:43:48.502Z,24.75
2022-12-15T08:46:28.273Z,37.88
2022-12-15T08:53:00.669Z,32.23
2022-12-15T08:56:03.228Z,30.63
2022-12-15T08:59:06.250Z,33.58
2022-12-15T09:02:07.923Z,29.73
2022-12-15T09:05:14.483Z,31.77
2022-12-15T09:08:06.311Z,33.55
2022-12-15T09:10:56.978Z,35.10
2022-12-15T09:20:18.142Z,28.67
2022-12-15T09:23:04.634Z,31.30
2022-12-15T09:25:31.114Z,33.13
2022-12-15T09:27:57.987Z,34.67
2022-12-15T09:30:24.677Z,29.65
2022-12-15T09:33:02.968Z,32.55
2022-12-15T09:35:31.014Z,35.80
2022-12-15T09:37:57.608Z,33.60
2022-12-15T09:40:25.788Z,36.90
2022-12-15T09:43:11.175Z,31.55
2022-12-15T09:45:46.748Z,34.40
2022-12-15T09:48:18.600Z,34.90
2022-12-15T09:50:48.769Z,38.88
2022-12-15T09:53:52.858Z,37.15
2022-12-15T09:56:17.982Z,34.83
2022-12-15T09:58:54.666Z,32.10
2022-12-15T10:01:30.602Z,33.92
2022-12-15T10:04:06.048Z,34.70
2022-12-15T10:06:41.250Z,38.75
2022-12-15T10:09:19.700Z,35.28
2022-12-15T10:11:55.334Z,37.53
2022-12-15T10:14:29.338Z,35.10
2022-12-15T10:17:06.133Z,37.35
2022-12-15T10:19:39.550Z,38.38
2022-12-15T10:22:58.114Z,35.08
2022-12-15T10:29:36.038Z,30.80
2022-12-15T10:32:05.222Z,41.47
2022-12-15T10:34:34.715Z,30.75
2022-12-15T10:37:04.449Z,32.00
2022-12-15T10:40:41.039Z,38.03
2022-12-15T10:43:36.472Z,36.75
2022-12-15T10:46:16.190Z,33.17
2022-12-15T10:49:03.288Z,39.72
2022-12-15T10:51:39.957Z,32.97
2022-12-15T10:54:22.677Z,38.40
2022-12-15T10:57:27.247Z,37.88
2022-12-15T11:00:56.982Z,35.58
2022-12-15T11:04:06.414Z,35.80
2022-12-15T11:09:33.300Z,38.58
2022-12-15T11:12:00.573Z,34.47
2022-12-15T11:14:40.911Z,35.22
2022-12-15T11:17:09.703Z,34.90
2022-12-15T11:19:43.403Z,32.38
2022-12-15T11:22:16.279Z,30.10
2022-12-15T11:24:47.520Z,35.80
2022-12-15T11:27:24.324Z,38.00
2022-12-15T11:30:01.421Z,37.42
2022-12-15T11:32:35.376Z,33.08
2022-12-15T11:35:03.638Z,34.95
2022-12-15T11:37:40.368Z,33.22
2022-12-15T11:40:27.829Z,32.43
2022-12-15T11:43:04.878Z,33.47
2022-12-15T11:45:41.678Z,35.47
2022-12-15T11:48:14.428Z,33.75
2022-12-15T11:50:52.062Z,33.70
2022-12-15T11:53:36.634Z,33.60
2022-12-15T11:56:15.543Z,32.72
2022-12-15T11:58:56.853Z,30.92
2022-12-15T12:02:00.738Z,32.67
2022-12-15T12:04:40.336Z,38.00
2022-12-15T12:07:14.409Z,30.07
2022-12-15T12:09:49.638Z,35.03
2022-12-15T12:12:25.541Z,37.95
2022-12-15T12:15:06.394Z,38.60
2022-12-15T12:17:40.454Z,36.55
2022-12-15T12:20:17.775Z,34.37
2022-12-15T12:22:53.735Z,31.75
2022-12-15T12:25:24.874Z,38.35
2022-12-15T12:27:56.028Z,32.42
2022-12-15T12:30:27.596Z,36.70
2022-12-15T12:33:04.066Z,33.97
2022-12-15T12:35:38.244Z,33.42
2022-12-15T12:38:06.919Z,37.58
2022-12-15T12:40:45.891Z,31.67
2022-12-15T12:43:26.929Z,37.40
2022-12-15T12:45:57.506Z,29.23
2022-12-15T12:48:30.418Z,32.38
2022-12-15T12:51:12.712Z,29.92
2022-12-15T12:53:39.654Z,29.05
2022-12-15T12:56:06.763Z,32.80
2022-12-15T12:58:37.928Z,32.45
2022-12-15T13:01:17.539Z,32.45
2022-12-15T13:04:11.932Z,27.50
2022-12-15T13:07:01.622Z,31.38
2022-12-15T13:10:00.807Z,25.27
2022-12-15T13:12:53.267Z,28.73
2022-12-15T13:15:37.951Z,31.75
2022-12-15T13:18:12.457Z,25.13
2022-12-15T13:20:40.778Z,23.50
2022-12-15T13:23:36.967Z,30.13
2022-12-15T13:26:15.624Z,27.30
2022-12-15T13:28:52.720Z,26.02
2022-12-15T13:31:29.181Z,27.13
2022-12-15T13:34:27.174Z,30.67
2022-12-15T13:40:56.274Z,26.73
2022-12-15T13:43:41.291Z,28.95
2022-12-15T13:46:15.885Z,29.23
2022-12-15T13:48:49.313Z,24.77
2022-12-15T13:51:26.584Z,29.40
2022-12-15T13:53:57.747Z,27.48
2022-12-15T13:57:01.418Z,26.92
2022-12-15T13:59:41.566Z,23.17
2022-12-15T14:02:24.144Z,32.63
2022-12-15T14:05:06.106Z,28.10
2022-12-15T14:07:34.434Z,30.05
2022-12-15T14:10:01.813Z,28.90
2022-12-15T14:12:29.895Z,27.38
2022-12-15T14:14:56.498Z,32.70
2022-12-15T14:17:23.048Z,27.35
2022-12-15T14:19:50.881Z,31.02
2022-12-15T14:22:28.021Z,32.10
2022-12-15T14:25:01.242Z,28.17
2022-12-15T14:27:31.058Z,33.33
2022-12-15T14:30:12.345Z,31.20
2022-12-15T14:32:42.056Z,34.60
2022-12-15T14:35:13.823Z,31.05
2022-12-15T14:37:41.991Z,29.02
2022-12-15T14:40:15.833Z,35.17
2022-12-15T14:42:46.126Z,32.83
2022-12-15T14:45:25.406Z,31.90
2022-12-15T14:48:13.469Z,33.20
2022-12-15T14:50:47.622Z,37.60
2022-12-15T14:53:19.922Z,28.63
2022-12-15T14:55:47.158Z,36.70
2022-12-15T14:58:32.161Z,33.15
2022-12-15T15:00:59.659Z,34.50
2022-12-15T15:03:34.204Z,37.03
2022-12-15T15:06:04.116Z,34.63
2022-12-15T15:08:33.417Z,32.55
2022-12-15T15:11:03.901Z,35.30
2022-12-15T15:13:39.804Z,43.73
2022-12-15T15:16:14.247Z,46.17
2022-12-15T15:18:42.888Z,38.25
2022-12-15T15:21:17.044Z,33.00
2022-12-15T15:23:57.548Z,43.35
2022-12-15T15:26:25.814Z,41.63
2022-12-15T15:28:54.432Z,33.75
2022-12-15T15:31:35.249Z,38.22
2022-12-15T15:34:06.805Z,39.05
2022-12-15T15:36:36.777Z,38.37
2022-12-15T15:39:10.312Z,38.50
2022-12-15T15:41:36.915Z,41.17
2022-12-15T15:44:12.812Z,39.25
2022-12-15T15:46:46.201Z,42.28
2022-12-15T15:49:16.615Z,33.10
2022-12-15T15:51:43.340Z,35.90
2022-12-15T15:54:14.196Z,33.25
2022-12-15T15:56:43.051Z,34.90
2022-12-15T15:59:12.778Z,34.50
2022-12-15T16:01:39.669Z,36.25
2022-12-15T16:04:07.177Z,35.85
2022-12-15T16:06:34.717Z,30.63
2022-12-15T16:09:01.754Z,32.33
2022-12-15T16:11:29.788Z,33.03
2022-12-15T16:13:56.578Z,35.13
2022-12-15T16:16:28.067Z,35.60
2022-12-15T16:18:54.588Z,36.25
2022-12-15T16:21:27.996Z,41.40
2022-12-15T16:23:56.926Z,38.17
2022-12-15T16:26:32.033Z,34.72
2022-12-15T16:28:59.051Z,34.65
2022-12-15T16:31:35.648Z,36.13
2022-12-15T16:34:05.605Z,38.72
2022-12-15T16:36:32.741Z,35.40
2022-12-15T16:38:59.209Z,35.85
2022-12-15T16:41:25.760Z,44.20
2022-12-15T16:43:54.301Z,41.33
2022-12-15T16:46:21.835Z,42.72
2022-12-15T16:48:49.849Z,53.10
2022-12-15T16:51:28.777Z,42.60
2022-12-15T16:53:55.470Z,42.65
2022-12-15T16:56:21.923Z,50.42
2022-12-15T16:58:57.476Z,40.00
2022-12-15T17:01:29.529Z,35.38
2022-12-15T17:03:57.956Z,36.15
2022-12-15T17:06:24.528Z,31.80
2022-12-15T17:08:54.529Z,32.13
2022-12-15T17:11:23.178Z,31.83
2022-12-15T17:13:51.099Z,35.45
2022-12-15T17:16:18.750Z,35.35
2022-12-15T17:18:45.711Z,38.00
2022-12-15T17:24:23.469Z,34.30
2022-12-15T17:26:50.926Z,36.10
2022-12-15T17:29:20.724Z,43.03
2022-12-15T17:35:44.711Z,33.92
2022-12-15T17:41:58.053Z,28.98
2022-12-15T17:44:36.921Z,34.43
2022-12-15T17:47:53.699Z,30.60
2022-12-15T17:50:23.721Z,31.80
2022-12-15T17:52:50.445Z,31.17
2022-12-15T17:58:43.813Z,30.40
2022-12-15T18:01:12.799Z,29.85
2022-12-15T18:03:39.388Z,30.13
2022-12-15T18:06:11.390Z,32.87
2022-12-15T18:08:37.935Z,28.75
2022-12-15T18:11:04.748Z,30.08
2022-12-15T18:13:35.440Z,34.15
2022-12-15T18:16:03.994Z,32.57
2022-12-15T18:18:30.993Z,37.22
2022-12-15T18:21:08.883Z,33.80
2022-12-15T18:23:36.909Z,39.10
2022-12-15T18:26:03.534Z,38.17
2022-12-15T18:28:41.152Z,35.35
2022-12-15T18:31:19.136Z,41.53
2022-12-15T18:33:46.073Z,37.30
2022-12-15T18:36:13.202Z,41.40
2022-12-15T18:38:39.765Z,44.25
2022-12-15T18:41:06.280Z,41.10
2022-12-15T18:43:35.621Z,35.97
2022-12-15T18:46:03.591Z,37.27
2022-12-15T18:48:33.488Z,38.67
2022-12-15T18:51:02.228Z,42.33
2022-12-15T18:53:33.213Z,36.33
2022-12-15T18:56:01.913Z,40.80
2022-12-15T18:58:30.550Z,42.13
2022-12-15T19:00:58.856Z,35.40
2022-12-15T19:03:35.543Z,42.20
2022-12-15T19:06:06.500Z,36.53
2022-12-15T19:08:33.027Z,39.60
2022-12-15T19:11:02.100Z,37.55
2022-12-15T19:13:30.782Z,37.83
2022-12-15T19:15:59.939Z,33.90
2022-12-15T19:18:26.723Z,39.88
2022-12-15T19:20:54.687Z,39.55
2022-12-15T19:23:21.809Z,38.17
2022-12-15T19:25:53.522Z,38.03
2022-12-15T19:28:23.905Z,45.95
2022-12-15T19:30:51.156Z,37.78
2022-12-15T19:33:21.512Z,37.80
2022-12-15T19:36:15.995Z,45.80
2022-12-15T19:38:44.645Z,38.45
2022-12-15T19:41:17.799Z,35.40
2022-12-15T19:43:44.482Z,37.40
2022-12-15T19:46:14.426Z,40.50
2022-12-15T19:48:40.962Z,47.42
2022-12-15T19:51:13.276Z,37.53
2022-12-15T19:53:44.982Z,38.60
2022-12-15T19:56:17.241Z,39.83
2022-12-15T19:58:43.826Z,35.17
2022-12-15T20:01:12.595Z,31.23
2022-12-15T20:03:39.521Z,36.23
2022-12-15T20:06:14.345Z,39.17
2022-12-15T20:08:46.400Z,37.47
2022-12-15T20:11:18.210Z,35.17
2022-12-15T20:13:45.199Z,31.87
2022-12-15T20:16:12.379Z,31.63
2022-12-15T20:18:38.995Z,31.67
2022-12-15T20:21:32.199Z,33.95
2022-12-15T20:24:05.548Z,35.10
2022-12-15T20:26:33.783Z,35.10
2022-12-15T20:29:24.907Z,36.17
2022-12-15T20:32:38.568Z,36.50
2022-12-15T20:35:39.236Z,39.97
2022-12-15T20:41:39.529Z,44.70
2022-12-15T20:44:26.332Z,37.47
2022-12-15T20:50:30.149Z,27.77
2022-12-15T20:53:29.291Z,30.20
2022-12-15T20:55:56.182Z,31.27
2022-12-15T20:58:28.321Z,30.77
2022-12-15T21:01:01.136Z,34.53
2022-12-15T21:03:29.887Z,36.28
2022-12-15T21:05:58.629Z,30.65
2022-12-15T21:08:26.883Z,30.23
2022-12-15T21:10:55.841Z,38.13
2022-12-15T21:13:27.154Z,29.67
2022-12-15T21:15:54.288Z,29.80
2022-12-15T21:19:11.060Z,30.20
2022-12-15T21:21:16.460Z,33.80
2022-12-15T21:23:43.094Z,29.67
2022-12-15T21:26:10.587Z,27.92
2022-12-15T21:28:40.514Z,29.38
2022-12-15T21:31:10.033Z,27.98
2022-12-15T21:33:37.936Z,29.30
2022-12-15T21:36:04.741Z,27.15
2022-12-15T21:38:35.958Z,27.03
2022-12-15T21:41:06.987Z,26.98
2022-12-15T21:43:35.608Z,33.80
2022-12-15T21:46:13.202Z,26.77
2022-12-15T21:48:39.750Z,30.40
2022-12-15T21:51:08.904Z,30.10
2022-12-15T21:53:35.436Z,28.90
2022-12-15T21:56:01.902Z,26.60
2022-12-15T21:58:28.850Z,27.60
2022-12-15T22:00:55.611Z,27.40
2022-12-15T22:03:23.667Z,35.67
2022-12-15T22:05:50.199Z,27.42
2022-12-15T22:08:18.739Z,24.97
2022-12-15T22:10:46.655Z,25.75
2022-12-15T22:13:19.518Z,31.52
2022-12-15T22:15:46.692Z,23.75
2022-12-15T22:18:15.433Z,22.90
2022-12-15T22:20:43.345Z,24.95
2022-12-15T22:23:09.814Z,26.50
2022-12-15T22:25:36.316Z,26.88
2022-12-15T22:28:02.812Z,27.23
2022-12-15T22:30:29.642Z,29.98
2022-12-15T22:32:56.172Z,27.38
2022-12-15T22:35:24.616Z,31.80
2022-12-15T22:37:52.791Z,29.27
2022-12-15T22:40:20.970Z,31.00
2022-12-15T22:42:52.465Z,30.90
2022-12-15T22:45:22.493Z,30.23
2022-12-15T22:47:50.321Z,30.20
2022-12-15T22:50:20.697Z,42.70
2022-12-15T22:52:47.519Z,34.58
2022-12-15T22:55:17.611Z,38.60
2022-12-15T22:57:46.715Z,36.80
2022-12-15T23:00:14.872Z,33.50
2022-12-15T23:02:46.295Z,32.03
2022-12-15T23:05:14.916Z,33.92
2022-12-15T23:07:42.104Z,32.90
2022-12-15T23:10:10.503Z,32.38
2022-12-15T23:12:39.606Z,26.73
2022-12-15T23:15:07.391Z,31.13
2022-12-15T23:17:34.120Z,29.40
2022-12-15T23:20:00.608Z,29.00
2022-12-15T23:22:27.100Z,31.52
2022-12-15T23:24:53.599Z,43.08
2022-12-15T23:27:21.707Z,29.63
2022-12-15T23:29:51.635Z,34.08
2022-12-15T23:32:18.300Z,31.88
2022-12-15T23:34:45.039Z,34.50
2022-12-15T23:37:11.492Z,30.37
2022-12-15T23:39:38.083Z,27.92
2022-12-15T23:42:04.712Z,32.15
2022-12-15T23:44:33.059Z,30.63
2022-12-15T23:47:01.071Z,27.33
2022-12-15T23:49:27.844Z,29.52
2022-12-15T23:51:54.336Z,32.20
2022-12-15T23:54:21.775Z,26.88
2022-12-15T23:56:48.240Z,29.77
2022-12-15T23:59:17.025Z,30.55
